sensor_id;sensor_type;location;lat;lon;timestamp;temperature;humidity
30572;DHT22;17348;50.948;10.696;2023-02-15T00:02:38;0.60;99.90
30572;DHT22;17348;50.948;10.696;2023-02-15T00:05:41;0.60;99.90
30572;DHT22;17348;50.948;10.696;2023-02-15T00:08:43;0.60;99.90
30572;DHT22;17348;50.948;10.696;2023-02-15T00:11:45;0.50;99.90
30572;DHT22;17348;50.948;10.696;2023-02-15T00:14:53;0.50;99.90
30572;DHT22;17348;50.948;10.696;2023-02-15T00:17:58;0.50;99.90
30572;DHT22;17348;50.948;10.696;2023-02-15T00:21:04;0.50;99.90
30572;DHT22;17348;50.948;10.696;2023-02-15T00:24:09;0.50;99.90
30572;DHT22;17348;50.948;10.696;2023-02-15T00:27:11;0.50;99.90
30572;DHT22;17348;50.948;10.696;2023-02-15T00:30:14;0.60;99.90
30572;DHT22;17348;50.948;10.696;2023-02-15T00:33:18;0.50;99.90
30572;DHT22;17348;50.948;10.696;2023-02-15T00:36:20;0.50;99.90
30572;DHT22;17348;50.948;10.696;2023-02-15T00:39:23;0.50;99.90
30572;DHT22;17348;50.948;10.696;2023-02-15T00:42:26;0.50;99.90
30572;DHT22;17348;50.948;10.696;2023-02-15T00:45:28;0.50;99.90
30572;DHT22;17348;50.948;10.696;2023-02-15T00:48:32;0.50;99.90
30572;DHT22;17348;50.948;10.696;2023-02-15T00:51:37;0.50;99.90
30572;DHT22;17348;50.948;10.696;2023-02-15T00:54:40;0.50;99.90
30572;DHT22;17348;50.948;10.696;2023-02-15T00:57:42;0.50;99.90
30572;DHT22;17348;50.948;10.696;2023-02-15T01:00:46;0.50;99.90
30572;DHT22;17348;50.948;10.696;2023-02-15T01:03:50;0.60;99.90
30572;DHT22;17348;50.948;10.696;2023-02-15T01:06:52;0.60;99.90
30572;DHT22;17348;50.948;10.696;2023-02-15T01:09:55;0.60;99.90
30572;DHT22;17348;50.948;10.696;2023-02-15T01:12:57;0.50;99.90
30572;DHT22;17348;50.948;10.696;2023-02-15T01:16:00;0.50;99.90
30572;DHT22;17348;50.948;10.696;2023-02-15T01:19:03;0.50;99.90
30572;DHT22;17348;50.948;10.696;2023-02-15T01:22:07;0.50;99.90
30572;DHT22;17348;50.948;10.696;2023-02-15T01:25:09;0.50;99.90
30572;DHT22;17348;50.948;10.696;2023-02-15T01:28:12;0.60;99.90
30572;DHT22;17348;50.948;10.696;2023-02-15T01:31:16;0.60;99.90
30572;DHT22;17348;50.948;10.696;2023-02-15T01:34:20;0.60;99.90
30572;DHT22;17348;50.948;10.696;2023-02-15T01:37:22;0.50;99.90
30572;DHT22;17348;50.948;10.696;2023-02-15T01:40:25;0.60;99.90
30572;DHT22;17348;50.948;10.696;2023-02-15T01:43:39;0.50;99.90
30572;DHT22;17348;50.948;10.696;2023-02-15T01:46:51;0.60;99.90
30572;DHT22;17348;50.948;10.696;2023-02-15T01:50:00;0.50;99.90
30572;DHT22;17348;50.948;10.696;2023-02-15T01:53:09;0.50;99.90
30572;DHT22;17348;50.948;10.696;2023-02-15T01:56:18;0.50;99.90
30572;DHT22;17348;50.948;10.696;2023-02-15T01:59:23;0.50;99.90
30572;DHT22;17348;50.948;10.696;2023-02-15T02:02:27;0.50;99.90
30572;DHT22;17348;50.948;10.696;2023-02-15T02:05:31;0.50;99.90
30572;DHT22;17348;50.948;10.696;2023-02-15T02:08:34;0.50;99.90
30572;DHT22;17348;50.948;10.696;2023-02-15T02:11:38;0.50;99.90
30572;DHT22;17348;50.948;10.696;2023-02-15T02:14:41;0.50;99.90
30572;DHT22;17348;50.948;10.696;2023-02-15T02:17:54;0.50;99.90
30572;DHT22;17348;50.948;10.696;2023-02-15T02:24:59;0.50;99.90
30572;DHT22;17348;50.948;10.696;2023-02-15T02:28:19;0.50;99.90
30572;DHT22;17348;50.948;10.696;2023-02-15T02:31:48;0.50;99.90
30572;DHT22;17348;50.948;10.696;2023-02-15T02:35:00;0.40;99.90
30572;DHT22;17348;50.948;10.696;2023-02-15T02:38:10;0.40;99.90
30572;DHT22;17348;50.948;10.696;2023-02-15T02:41:20;0.40;99.90
30572;DHT22;17348;50.948;10.696;2023-02-15T02:44:25;0.40;99.90
30572;DHT22;17348;50.948;10.696;2023-02-15T02:47:33;0.40;99.90
30572;DHT22;17348;50.948;10.696;2023-02-15T02:50:41;0.40;99.90
30572;DHT22;17348;50.948;10.696;2023-02-15T02:53:43;0.30;99.90
30572;DHT22;17348;50.948;10.696;2023-02-15T02:56:47;0.40;99.90
30572;DHT22;17348;50.948;10.696;2023-02-15T02:59:50;0.30;99.90
30572;DHT22;17348;50.948;10.696;2023-02-15T03:02:58;0.40;99.90
30572;DHT22;17348;50.948;10.696;2023-02-15T03:06:07;0.30;99.90
30572;DHT22;17348;50.948;10.696;2023-02-15T03:09:14;0.40;99.90
30572;DHT22;17348;50.948;10.696;2023-02-15T03:12:20;0.30;99.90
30572;DHT22;17348;50.948;10.696;2023-02-15T03:15:25;0.40;99.90
30572;DHT22;17348;50.948;10.696;2023-02-15T03:18:52;0.30;99.90
30572;DHT22;17348;50.948;10.696;2023-02-15T03:22:03;0.30;99.90
30572;DHT22;17348;50.948;10.696;2023-02-15T03:25:12;0.30;99.90
30572;DHT22;17348;50.948;10.696;2023-02-15T03:28:20;0.20;99.90
30572;DHT22;17348;50.948;10.696;2023-02-15T03:31:26;0.30;99.90
30572;DHT22;17348;50.948;10.696;2023-02-15T03:34:30;0.20;99.90
30572;DHT22;17348;50.948;10.696;2023-02-15T03:37:37;0.20;99.90
30572;DHT22;17348;50.948;10.696;2023-02-15T03:40:42;0.20;99.90
30572;DHT22;17348;50.948;10.696;2023-02-15T03:44:06;0.20;99.90
30572;DHT22;17348;50.948;10.696;2023-02-15T03:47:13;0.20;99.90
30572;DHT22;17348;50.948;10.696;2023-02-15T03:50:19;0.20;99.90
30572;DHT22;17348;50.948;10.696;2023-02-15T03:53:42;0.20;99.90
30572;DHT22;17348;50.948;10.696;2023-02-15T03:56:45;0.10;99.90
30572;DHT22;17348;50.948;10.696;2023-02-15T04:00:14;0.10;99.90
30572;DHT22;17348;50.948;10.696;2023-02-15T04:03:38;0.10;99.90
30572;DHT22;17348;50.948;10.696;2023-02-15T04:06:41;0.10;99.90
30572;DHT22;17348;50.948;10.696;2023-02-15T04:09:45;0.00;99.90
30572;DHT22;17348;50.948;10.696;2023-02-15T04:13:04;0.00;99.90
30572;DHT22;17348;50.948;10.696;2023-02-15T04:16:07;0.00;99.90
30572;DHT22;17348;50.948;10.696;2023-02-15T04:19:08;0.00;99.90
30572;DHT22;17348;50.948;10.696;2023-02-15T04:22:28;0.00;99.90
30572;DHT22;17348;50.948;10.696;2023-02-15T04:25:49;-0.10;99.90
30572;DHT22;17348;50.948;10.696;2023-02-15T04:28:51;0.00;99.90
30572;DHT22;17348;50.948;10.696;2023-02-15T04:31:55;-0.20;99.90
30572;DHT22;17348;50.948;10.696;2023-02-15T04:34:57;-0.30;99.90
30572;DHT22;17348;50.948;10.696;2023-02-15T04:38:00;-0.40;99.90
30572;DHT22;17348;50.948;10.696;2023-02-15T04:41:04;-0.40;99.90
30572;DHT22;17348;50.948;10.696;2023-02-15T04:44:06;-0.50;99.90
30572;DHT22;17348;50.948;10.696;2023-02-15T04:47:09;-0.60;99.90
30572;DHT22;17348;50.948;10.696;2023-02-15T04:50:11;-0.60;99.90
30572;DHT22;17348;50.948;10.696;2023-02-15T04:53:13;-0.60;99.90
30572;DHT22;17348;50.948;10.696;2023-02-15T04:56:19;-0.70;99.90
30572;DHT22;17348;50.948;10.696;2023-02-15T04:59:22;-0.80;99.90
30572;DHT22;17348;50.948;10.696;2023-02-15T05:02:24;-0.80;99.90
30572;DHT22;17348;50.948;10.696;2023-02-15T05:05:27;-0.90;99.90
30572;DHT22;17348;50.948;10.696;2023-02-15T05:08:29;-0.90;99.90
30572;DHT22;17348;50.948;10.696;2023-02-15T05:11:33;-0.90;99.90
30572;DHT22;17348;50.948;10.696;2023-02-15T05:14:35;-1.00;99.90
30572;DHT22;17348;50.948;10.696;2023-02-15T05:17:38;-1.00;99.90
30572;DHT22;17348;50.948;10.696;2023-02-15T05:20:40;-1.10;99.90
30572;DHT22;17348;50.948;10.696;2023-02-15T05:23:42;-1.10;99.90
30572;DHT22;17348;50.948;10.696;2023-02-15T05:26:46;-1.10;99.90
30572;DHT22;17348;50.948;10.696;2023-02-15T05:30:07;-1.10;99.90
30572;DHT22;17348;50.948;10.696;2023-02-15T05:33:12;-1.10;99.90
30572;DHT22;17348;50.948;10.696;2023-02-15T05:36:14;-1.20;99.90
30572;DHT22;17348;50.948;10.696;2023-02-15T05:39:17;-1.20;99.90
30572;DHT22;17348;50.948;10.696;2023-02-15T05:42:20;-1.10;99.90
30572;DHT22;17348;50.948;10.696;2023-02-15T05:45:23;-1.10;99.90
30572;DHT22;17348;50.948;10.696;2023-02-15T05:48:26;-1.10;99.90
30572;DHT22;17348;50.948;10.696;2023-02-15T05:51:28;-1.00;99.90
30572;DHT22;17348;50.948;10.696;2023-02-15T05:54:31;-1.00;99.90
30572;DHT22;17348;50.948;10.696;2023-02-15T05:57:34;-0.90;99.90
30572;DHT22;17348;50.948;10.696;2023-02-15T06:00:37;-0.90;99.90
30572;DHT22;17348;50.948;10.696;2023-02-15T06:03:39;-0.90;99.90
30572;DHT22;17348;50.948;10.696;2023-02-15T06:06:41;-0.80;99.90
30572;DHT22;17348;50.948;10.696;2023-02-15T06:09:44;-0.80;99.90
30572;DHT22;17348;50.948;10.696;2023-02-15T06:12:47;-0.80;99.90
30572;DHT22;17348;50.948;10.696;2023-02-15T06:15:50;-0.80;99.90
30572;DHT22;17348;50.948;10.696;2023-02-15T06:18:52;-0.70;99.90
30572;DHT22;17348;50.948;10.696;2023-02-15T06:21:54;-0.70;99.90
30572;DHT22;17348;50.948;10.696;2023-02-15T06:24:56;-0.70;99.90
30572;DHT22;17348;50.948;10.696;2023-02-15T06:28:00;-0.60;99.90
30572;DHT22;17348;50.948;10.696;2023-02-15T06:31:02;-0.60;99.90
30572;DHT22;17348;50.948;10.696;2023-02-15T06:34:05;-0.60;99.90
30572;DHT22;17348;50.948;10.696;2023-02-15T06:37:07;-0.60;99.90
30572;DHT22;17348;50.948;10.696;2023-02-15T06:40:10;-0.60;99.90
30572;DHT22;17348;50.948;10.696;2023-02-15T06:43:14;-0.60;99.90
30572;DHT22;17348;50.948;10.696;2023-02-15T06:46:16;-0.60;99.90
30572;DHT22;17348;50.948;10.696;2023-02-15T06:49:18;-0.60;99.90
30572;DHT22;17348;50.948;10.696;2023-02-15T06:52:20;-0.70;99.90
30572;DHT22;17348;50.948;10.696;2023-02-15T06:55:23;-0.60;99.90
30572;DHT22;17348;50.948;10.696;2023-02-15T06:58:26;-0.70;99.90
30572;DHT22;17348;50.948;10.696;2023-02-15T07:01:29;-0.70;99.90
30572;DHT22;17348;50.948;10.696;2023-02-15T07:04:31;-0.70;99.90
30572;DHT22;17348;50.948;10.696;2023-02-15T07:07:33;-0.80;99.90
30572;DHT22;17348;50.948;10.696;2023-02-15T07:10:36;-0.80;99.90
30572;DHT22;17348;50.948;10.696;2023-02-15T07:13:40;-0.70;99.90
30572;DHT22;17348;50.948;10.696;2023-02-15T07:16:45;-0.70;99.90
30572;DHT22;17348;50.948;10.696;2023-02-15T07:19:48;-0.60;99.90
30572;DHT22;17348;50.948;10.696;2023-02-15T07:22:50;-0.60;99.90
30572;DHT22;17348;50.948;10.696;2023-02-15T07:25:56;-0.50;99.90
30572;DHT22;17348;50.948;10.696;2023-02-15T07:29:01;-0.40;99.90
30572;DHT22;17348;50.948;10.696;2023-02-15T07:32:03;-0.30;99.90
30572;DHT22;17348;50.948;10.696;2023-02-15T07:35:05;-0.30;99.90
30572;DHT22;17348;50.948;10.696;2023-02-15T07:38:08;-0.30;99.90
30572;DHT22;17348;50.948;10.696;2023-02-15T07:41:12;-0.10;99.90
30572;DHT22;17348;50.948;10.696;2023-02-15T07:44:16;0.00;99.90
30572;DHT22;17348;50.948;10.696;2023-02-15T07:47:19;0.10;99.90
30572;DHT22;17348;50.948;10.696;2023-02-15T07:50:21;0.10;99.90
30572;DHT22;17348;50.948;10.696;2023-02-15T07:53:24;0.30;99.90
30572;DHT22;17348;50.948;10.696;2023-02-15T07:56:26;0.40;99.90
30572;DHT22;17348;50.948;10.696;2023-02-15T07:59:30;0.40;99.90
30572;DHT22;17348;50.948;10.696;2023-02-15T08:02:33;0.60;99.90
30572;DHT22;17348;50.948;10.696;2023-02-15T08:05:38;0.70;99.90
30572;DHT22;17348;50.948;10.696;2023-02-15T08:08:41;0.80;99.90
30572;DHT22;17348;50.948;10.696;2023-02-15T08:11:43;0.90;99.90
30572;DHT22;17348;50.948;10.696;2023-02-15T08:14:47;1.10;99.90
30572;DHT22;17348;50.948;10.696;2023-02-15T08:17:50;1.10;99.90
30572;DHT22;17348;50.948;10.696;2023-02-15T08:20:52;1.30;99.90
30572;DHT22;17348;50.948;10.696;2023-02-15T08:23:55;1.40;99.90
30572;DHT22;17348;50.948;10.696;2023-02-15T08:26:58;1.50;99.90
30572;DHT22;17348;50.948;10.696;2023-02-15T08:30:02;1.60;99.90
30572;DHT22;17348;50.948;10.696;2023-02-15T08:33:05;1.70;99.90
30572;DHT22;17348;50.948;10.696;2023-02-15T08:36:09;1.70;99.90
30572;DHT22;17348;50.948;10.696;2023-02-15T08:39:13;1.70;99.90
30572;DHT22;17348;50.948;10.696;2023-02-15T08:42:15;1.80;99.90
30572;DHT22;17348;50.948;10.696;2023-02-15T08:45:23;1.80;99.90
30572;DHT22;17348;50.948;10.696;2023-02-15T08:48:26;1.90;99.90
30572;DHT22;17348;50.948;10.696;2023-02-15T08:51:31;2.00;99.90
30572;DHT22;17348;50.948;10.696;2023-02-15T08:54:33;2.00;99.90
30572;DHT22;17348;50.948;10.696;2023-02-15T08:57:35;2.10;99.90
30572;DHT22;17348;50.948;10.696;2023-02-15T09:00:40;2.10;99.90
30572;DHT22;17348;50.948;10.696;2023-02-15T09:03:43;2.10;99.90
30572;DHT22;17348;50.948;10.696;2023-02-15T09:06:47;2.10;99.90
30572;DHT22;17348;50.948;10.696;2023-02-15T09:09:50;2.20;99.90
30572;DHT22;17348;50.948;10.696;2023-02-15T09:12:52;2.30;99.90
30572;DHT22;17348;50.948;10.696;2023-02-15T09:16:00;2.40;99.90
30572;DHT22;17348;50.948;10.696;2023-02-15T09:19:03;2.60;99.90
30572;DHT22;17348;50.948;10.696;2023-02-15T09:22:06;2.70;99.90
30572;DHT22;17348;50.948;10.696;2023-02-15T09:25:08;2.80;99.90
30572;DHT22;17348;50.948;10.696;2023-02-15T09:28:11;2.90;99.90
30572;DHT22;17348;50.948;10.696;2023-02-15T09:31:16;3.10;99.90
30572;DHT22;17348;50.948;10.696;2023-02-15T09:34:20;3.10;99.90
30572;DHT22;17348;50.948;10.696;2023-02-15T09:37:23;3.20;99.90
30572;DHT22;17348;50.948;10.696;2023-02-15T09:40:27;3.40;99.90
30572;DHT22;17348;50.948;10.696;2023-02-15T09:43:36;3.50;99.90
30572;DHT22;17348;50.948;10.696;2023-02-15T09:46:56;3.60;99.90
30572;DHT22;17348;50.948;10.696;2023-02-15T09:50:06;3.80;99.90
30572;DHT22;17348;50.948;10.696;2023-02-15T09:53:31;4.00;99.90
30572;DHT22;17348;50.948;10.696;2023-02-15T09:56:40;4.20;99.90
30572;DHT22;17348;50.948;10.696;2023-02-15T09:59:51;4.40;99.90
30572;DHT22;17348;50.948;10.696;2023-02-15T10:03:11;4.50;99.90
30572;DHT22;17348;50.948;10.696;2023-02-15T10:06:26;4.70;99.90
30572;DHT22;17348;50.948;10.696;2023-02-15T10:09:39;4.90;99.90
30572;DHT22;17348;50.948;10.696;2023-02-15T10:12:54;5.10;99.90
30572;DHT22;17348;50.948;10.696;2023-02-15T10:16:08;5.20;99.90
30572;DHT22;17348;50.948;10.696;2023-02-15T10:19:20;5.20;99.90
30572;DHT22;17348;50.948;10.696;2023-02-15T10:22:31;5.20;99.90
30572;DHT22;17348;50.948;10.696;2023-02-15T10:25:43;5.20;99.90
30572;DHT22;17348;50.948;10.696;2023-02-15T10:28:49;5.30;99.90
30572;DHT22;17348;50.948;10.696;2023-02-15T10:31:59;5.30;99.90
30572;DHT22;17348;50.948;10.696;2023-02-15T10:35:13;5.40;99.90
30572;DHT22;17348;50.948;10.696;2023-02-15T10:38:24;5.30;99.90
30572;DHT22;17348;50.948;10.696;2023-02-15T10:41:37;5.40;99.90
30572;DHT22;17348;50.948;10.696;2023-02-15T10:45:01;5.40;99.90
30572;DHT22;17348;50.948;10.696;2023-02-15T10:48:21;5.50;99.90
30572;DHT22;17348;50.948;10.696;2023-02-15T10:51:31;5.70;99.90
30572;DHT22;17348;50.948;10.696;2023-02-15T10:54:41;5.80;99.90
30572;DHT22;17348;50.948;10.696;2023-02-15T10:57:52;5.90;99.90
30572;DHT22;17348;50.948;10.696;2023-02-15T11:01:02;6.10;99.90
30572;DHT22;17348;50.948;10.696;2023-02-15T11:04:23;6.20;99.90
30572;DHT22;17348;50.948;10.696;2023-02-15T11:07:38;6.40;99.90
30572;DHT22;17348;50.948;10.696;2023-02-15T11:10:45;6.50;99.90
30572;DHT22;17348;50.948;10.696;2023-02-15T11:13:57;6.70;99.90
30572;DHT22;17348;50.948;10.696;2023-02-15T11:17:05;6.80;99.90
30572;DHT22;17348;50.948;10.696;2023-02-15T11:20:17;7.00;99.90
30572;DHT22;17348;50.948;10.696;2023-02-15T11:23:24;7.20;99.90
30572;DHT22;17348;50.948;10.696;2023-02-15T11:26:31;7.30;99.90
30572;DHT22;17348;50.948;10.696;2023-02-15T11:29:38;7.40;99.90
30572;DHT22;17348;50.948;10.696;2023-02-15T11:32:45;7.60;99.90
30572;DHT22;17348;50.948;10.696;2023-02-15T11:35:53;7.80;99.90
30572;DHT22;17348;50.948;10.696;2023-02-15T11:39:03;8.00;99.90
30572;DHT22;17348;50.948;10.696;2023-02-15T11:42:14;8.10;99.90
30572;DHT22;17348;50.948;10.696;2023-02-15T11:45:22;8.30;99.90
30572;DHT22;17348;50.948;10.696;2023-02-15T11:48:29;8.50;99.90
30572;DHT22;17348;50.948;10.696;2023-02-15T11:51:35;8.60;99.90
30572;DHT22;17348;50.948;10.696;2023-02-15T11:54:41;8.70;99.90
30572;DHT22;17348;50.948;10.696;2023-02-15T11:57:50;8.80;99.90
30572;DHT22;17348;50.948;10.696;2023-02-15T12:00:58;8.90;99.90
30572;DHT22;17348;50.948;10.696;2023-02-15T12:04:06;9.10;99.90
30572;DHT22;17348;50.948;10.696;2023-02-15T12:07:13;9.20;99.90
30572;DHT22;17348;50.948;10.696;2023-02-15T12:10:24;9.40;99.90
30572;DHT22;17348;50.948;10.696;2023-02-15T12:13:27;9.50;99.90
30572;DHT22;17348;50.948;10.696;2023-02-15T12:16:34;9.60;99.90
30572;DHT22;17348;50.948;10.696;2023-02-15T12:19:41;9.80;99.90
30572;DHT22;17348;50.948;10.696;2023-02-15T12:22:49;9.90;99.90
30572;DHT22;17348;50.948;10.696;2023-02-15T12:25:55;10.00;99.90
30572;DHT22;17348;50.948;10.696;2023-02-15T12:29:00;10.00;99.90
30572;DHT22;17348;50.948;10.696;2023-02-15T12:32:03;10.00;99.90
30572;DHT22;17348;50.948;10.696;2023-02-15T12:35:09;10.10;99.90
30572;DHT22;17348;50.948;10.696;2023-02-15T12:38:23;10.20;99.90
30572;DHT22;17348;50.948;10.696;2023-02-15T12:41:26;10.20;99.90
30572;DHT22;17348;50.948;10.696;2023-02-15T12:44:30;10.20;99.90
30572;DHT22;17348;50.948;10.696;2023-02-15T12:47:33;10.10;99.90
30572;DHT22;17348;50.948;10.696;2023-02-15T12:50:37;10.10;99.90
30572;DHT22;17348;50.948;10.696;2023-02-15T12:53:41;10.10;99.90
30572;DHT22;17348;50.948;10.696;2023-02-15T12:56:45;10.10;99.90
30572;DHT22;17348;50.948;10.696;2023-02-15T12:59:52;10.00;99.90
30572;DHT22;17348;50.948;10.696;2023-02-15T13:02:56;10.00;99.90
30572;DHT22;17348;50.948;10.696;2023-02-15T13:05:59;10.00;99.90
30572;DHT22;17348;50.948;10.696;2023-02-15T13:09:15;9.90;99.90
30572;DHT22;17348;50.948;10.696;2023-02-15T13:12:21;9.90;99.90
30572;DHT22;17348;50.948;10.696;2023-02-15T13:15:34;10.00;99.90
30572;DHT22;17348;50.948;10.696;2023-02-15T13:18:39;9.90;99.90
30572;DHT22;17348;50.948;10.696;2023-02-15T13:21:46;9.90;99.90
30572;DHT22;17348;50.948;10.696;2023-02-15T13:24:53;9.90;99.90
30572;DHT22;17348;50.948;10.696;2023-02-15T13:28:01;9.90;99.90
30572;DHT22;17348;50.948;10.696;2023-02-15T13:31:11;9.90;99.90
30572;DHT22;17348;50.948;10.696;2023-02-15T13:34:17;9.90;99.90
30572;DHT22;17348;50.948;10.696;2023-02-15T13:37:33;10.00;99.90
30572;DHT22;17348;50.948;10.696;2023-02-15T13:40:43;9.90;99.90
30572;DHT22;17348;50.948;10.696;2023-02-15T13:43:56;9.90;99.90
30572;DHT22;17348;50.948;10.696;2023-02-15T13:47:10;10.00;99.90
30572;DHT22;17348;50.948;10.696;2023-02-15T13:50:31;10.00;99.90
30572;DHT22;17348;50.948;10.696;2023-02-15T13:54:00;10.00;99.90
30572;DHT22;17348;50.948;10.696;2023-02-15T13:57:24;10.00;99.90
30572;DHT22;17348;50.948;10.696;2023-02-15T14:00:35;10.10;99.90
30572;DHT22;17348;50.948;10.696;2023-02-15T14:03:59;10.10;99.90
30572;DHT22;17348;50.948;10.696;2023-02-15T14:07:20;10.10;99.90
30572;DHT22;17348;50.948;10.696;2023-02-15T14:10:42;10.10;99.90
30572;DHT22;17348;50.948;10.696;2023-02-15T14:14:11;10.20;99.90
30572;DHT22;17348;50.948;10.696;2023-02-15T14:17:24;10.20;99.90
30572;DHT22;17348;50.948;10.696;2023-02-15T14:20:41;10.20;99.90
30572;DHT22;17348;50.948;10.696;2023-02-15T14:24:01;10.20;99.90
30572;DHT22;17348;50.948;10.696;2023-02-15T14:27:18;10.20;99.90
30572;DHT22;17348;50.948;10.696;2023-02-15T14:30:26;10.20;99.90
30572;DHT22;17348;50.948;10.696;2023-02-15T14:33:34;10.10;99.90
30572;DHT22;17348;50.948;10.696;2023-02-15T14:36:39;10.10;99.90
30572;DHT22;17348;50.948;10.696;2023-02-15T14:39:47;10.00;99.90
30572;DHT22;17348;50.948;10.696;2023-02-15T14:43:15;10.10;99.90
30572;DHT22;17348;50.948;10.696;2023-02-15T14:46:23;10.00;99.90
30572;DHT22;17348;50.948;10.696;2023-02-15T14:49:31;10.00;99.90
30572;DHT22;17348;50.948;10.696;2023-02-15T14:56:23;10.00;99.90
30572;DHT22;17348;50.948;10.696;2023-02-15T14:59:27;10.00;99.90
30572;DHT22;17348;50.948;10.696;2023-02-15T15:02:43;9.90;99.90
30572;DHT22;17348;50.948;10.696;2023-02-15T15:05:50;9.90;99.90
30572;DHT22;17348;50.948;10.696;2023-02-15T15:08:58;9.90;99.90
30572;DHT22;17348;50.948;10.696;2023-02-15T15:15:34;9.80;99.90
30572;DHT22;17348;50.948;10.696;2023-02-15T15:18:45;9.80;99.90
30572;DHT22;17348;50.948;10.696;2023-02-15T15:21:54;9.70;99.90
30572;DHT22;17348;50.948;10.696;2023-02-15T15:24:57;9.70;99.90
30572;DHT22;17348;50.948;10.696;2023-02-15T15:28:00;9.60;99.90
30572;DHT22;17348;50.948;10.696;2023-02-15T15:31:13;9.60;99.90
30572;DHT22;17348;50.948;10.696;2023-02-15T15:34:44;9.50;99.90
30572;DHT22;17348;50.948;10.696;2023-02-15T15:38:08;9.50;99.90
30572;DHT22;17348;50.948;10.696;2023-02-15T15:41:18;9.40;99.90
30572;DHT22;17348;50.948;10.696;2023-02-15T15:51:39;9.00;99.90
30572;DHT22;17348;50.948;10.696;2023-02-15T15:54:44;8.90;99.90
30572;DHT22;17348;50.948;10.696;2023-02-15T15:57:51;8.90;99.90
30572;DHT22;17348;50.948;10.696;2023-02-15T16:00:57;8.90;99.90
30572;DHT22;17348;50.948;10.696;2023-02-15T16:04:01;8.70;99.90
30572;DHT22;17348;50.948;10.696;2023-02-15T16:07:20;8.60;99.90
30572;DHT22;17348;50.948;10.696;2023-02-15T16:10:28;8.50;99.90
30572;DHT22;17348;50.948;10.696;2023-02-15T16:13:33;8.30;99.90
30572;DHT22;17348;50.948;10.696;2023-02-15T16:16:35;8.10;99.90
30572;DHT22;17348;50.948;10.696;2023-02-15T16:19:39;7.90;99.90
30572;DHT22;17348;50.948;10.696;2023-02-15T16:22:43;7.70;99.90
30572;DHT22;17348;50.948;10.696;2023-02-15T16:25:55;7.60;99.90
30572;DHT22;17348;50.948;10.696;2023-02-15T16:29:00;7.40;99.90
30572;DHT22;17348;50.948;10.696;2023-02-15T16:32:04;7.30;99.90
30572;DHT22;17348;50.948;10.696;2023-02-15T16:35:14;7.10;99.90
30572;DHT22;17348;50.948;10.696;2023-02-15T16:38:18;7.00;99.90
30572;DHT22;17348;50.948;10.696;2023-02-15T16:41:23;6.80;99.90
30572;DHT22;17348;50.948;10.696;2023-02-15T16:44:28;6.60;99.90
30572;DHT22;17348;50.948;10.696;2023-02-15T16:47:38;6.50;99.90
30572;DHT22;17348;50.948;10.696;2023-02-15T16:50:48;6.30;99.90
30572;DHT22;17348;50.948;10.696;2023-02-15T16:53:52;6.20;99.90
30572;DHT22;17348;50.948;10.696;2023-02-15T16:56:56;6.10;99.90
30572;DHT22;17348;50.948;10.696;2023-02-15T17:00:03;6.00;99.90
30572;DHT22;17348;50.948;10.696;2023-02-15T17:03:22;5.90;99.90
30572;DHT22;17348;50.948;10.696;2023-02-15T17:06:26;5.70;99.90
30572;DHT22;17348;50.948;10.696;2023-02-15T17:09:30;5.60;99.90
30572;DHT22;17348;50.948;10.696;2023-02-15T17:12:45;5.50;99.90
30572;DHT22;17348;50.948;10.696;2023-02-15T17:16:23;5.30;99.90
30572;DHT22;17348;50.948;10.696;2023-02-15T17:19:28;5.20;99.90
30572;DHT22;17348;50.948;10.696;2023-02-15T17:22:32;5.10;99.90
30572;DHT22;17348;50.948;10.696;2023-02-15T17:25:37;5.00;99.90
30572;DHT22;17348;50.948;10.696;2023-02-15T17:28:45;4.90;99.90
30572;DHT22;17348;50.948;10.696;2023-02-15T17:31:49;4.80;99.90
30572;DHT22;17348;50.948;10.696;2023-02-15T17:35:07;4.70;99.90
30572;DHT22;17348;50.948;10.696;2023-02-15T17:38:18;4.60;99.90
30572;DHT22;17348;50.948;10.696;2023-02-15T17:41:20;4.50;99.90
30572;DHT22;17348;50.948;10.696;2023-02-15T17:44:24;4.40;99.90
30572;DHT22;17348;50.948;10.696;2023-02-15T17:47:26;4.30;99.90
30572;DHT22;17348;50.948;10.696;2023-02-15T17:50:30;4.20;99.90
30572;DHT22;17348;50.948;10.696;2023-02-15T17:53:33;4.10;99.90
30572;DHT22;17348;50.948;10.696;2023-02-15T17:56:37;4.00;99.90
30572;DHT22;17348;50.948;10.696;2023-02-15T17:59:43;4.00;99.90
30572;DHT22;17348;50.948;10.696;2023-02-15T18:03:03;3.90;99.90
30572;DHT22;17348;50.948;10.696;2023-02-15T18:06:23;3.90;99.90
30572;DHT22;17348;50.948;10.696;2023-02-15T18:09:42;3.80;99.90
30572;DHT22;17348;50.948;10.696;2023-02-15T18:13:02;3.70;99.90
30572;DHT22;17348;50.948;10.696;2023-02-15T18:16:11;3.60;99.90
30572;DHT22;17348;50.948;10.696;2023-02-15T18:19:16;3.50;99.90
30572;DHT22;17348;50.948;10.696;2023-02-15T18:22:19;3.40;99.90
30572;DHT22;17348;50.948;10.696;2023-02-15T18:25:22;3.40;99.90
30572;DHT22;17348;50.948;10.696;2023-02-15T18:28:25;3.30;99.90
30572;DHT22;17348;50.948;10.696;2023-02-15T18:31:30;3.20;99.90
30572;DHT22;17348;50.948;10.696;2023-02-15T18:34:35;3.20;99.90
30572;DHT22;17348;50.948;10.696;2023-02-15T18:37:38;3.10;99.90
30572;DHT22;17348;50.948;10.696;2023-02-15T18:40:40;3.00;99.90
30572;DHT22;17348;50.948;10.696;2023-02-15T18:43:43;2.90;99.90
30572;DHT22;17348;50.948;10.696;2023-02-15T18:46:47;2.90;99.90
30572;DHT22;17348;50.948;10.696;2023-02-15T18:49:49;2.80;99.90
30572;DHT22;17348;50.948;10.696;2023-02-15T18:52:52;2.70;99.90
30572;DHT22;17348;50.948;10.696;2023-02-15T18:55:54;2.70;99.90
30572;DHT22;17348;50.948;10.696;2023-02-15T18:58:57;2.60;99.90
30572;DHT22;17348;50.948;10.696;2023-02-15T19:02:01;2.60;99.90
30572;DHT22;17348;50.948;10.696;2023-02-15T19:05:03;2.60;99.90
30572;DHT22;17348;50.948;10.696;2023-02-15T19:08:14;2.50;99.90
30572;DHT22;17348;50.948;10.696;2023-02-15T19:11:19;2.50;99.90
30572;DHT22;17348;50.948;10.696;2023-02-15T19:14:25;2.40;99.90
30572;DHT22;17348;50.948;10.696;2023-02-15T19:17:29;2.40;99.90
30572;DHT22;17348;50.948;10.696;2023-02-15T19:20:35;2.30;99.90
30572;DHT22;17348;50.948;10.696;2023-02-15T19:23:38;2.40;99.90
30572;DHT22;17348;50.948;10.696;2023-02-15T19:26:42;2.30;99.90
30572;DHT22;17348;50.948;10.696;2023-02-15T19:29:46;2.20;99.90
30572;DHT22;17348;50.948;10.696;2023-02-15T19:32:51;2.20;99.90
30572;DHT22;17348;50.948;10.696;2023-02-15T19:35:57;2.10;99.90
30572;DHT22;17348;50.948;10.696;2023-02-15T19:39:03;2.10;99.90
30572;DHT22;17348;50.948;10.696;2023-02-15T19:42:12;2.00;99.90
30572;DHT22;17348;50.948;10.696;2023-02-15T19:45:17;1.90;99.90
30572;DHT22;17348;50.948;10.696;2023-02-15T19:48:22;1.90;99.90
30572;DHT22;17348;50.948;10.696;2023-02-15T19:51:25;1.90;99.90
30572;DHT22;17348;50.948;10.696;2023-02-15T19:54:28;1.80;99.90
30572;DHT22;17348;50.948;10.696;2023-02-15T19:57:31;1.80;99.90